Terminal Aerodrome Forecast
Issued by NWS Flagstaff, AZ

Home | Current Version | Previous Version | Text Only | Print | Product List | Glossary On
Versions: 1 2 3 4 5 6 7 8 9 10 11 12 13 14 15 16 17 18
000
FTUS45 KFGZ 020542
TAFFLG
TAF
KFLG 020542Z 0206/0306 VRB04KT P6SM FEW120 SCT150
     FM021700 23008KT P6SM SCT060 BKN110
      TEMPO 0220/0224 VRB15G25KT 4SM -TSRA BKN060CB
     FM030200 VRB05KT P6SM FEW120=

USA.gov is the U.S. government's official web portal to all federal, state and local government web resources and services.